La Porte, IN (46350)

11:25 AM CST on February 24, 2017 (GMT -0600)
La Porte, IN | | Change Station

Elev 820 ft 41.59 °N, 86.73 °W | Updated 5 seconds ago

Overcast
Overcast
63.2 °F
Feels Like 63.2 °F
N
1.0
Wind Variable Wind from South
Gusts 9.0 mph

Today
High -- | Low -- °F
--% Chance of Precip.
Yesterday
High -- | Low -- °F
Precip. -- in
Pressure 29.46 in
Visibility 10.0 miles
Clouds Overcast 2100 ft
Dew Point 58 °F
Humidity 85%
Rainfall 0.05 in
Snow Depth Not available.
6:28 AM 5:31 PM
Waning Crescent, 4% visible
METAR KPPO 241715Z AUTO 22013G21KT 10SM OVC021 17/14 A2946 RMK AO2 T01710137
Pressure 29.46 in
Visibility 10.0 miles
Clouds Overcast 2100 ft
Dew Point 58 °F
Humidity 85%
Rainfall 0.05 in
Snow Depth Not available.
6:28 AM 5:31 PM
Waning Crescent, 4% visible
METAR KPPO 241715Z AUTO 22013G21KT 10SM OVC021 17/14 A2946 RMK AO2 T01710137

Get Your Daily Forecast Email!

Thanks for signing up!

Be on the lookout for a verification email in your inbox.

You'll start receiving the daily forecast at 8 AM.

×

10-Day Weather Forecast

Almanac

Astronomy

Feb. 24, 2017 Rise Set
Actual Time
Civil Twilight
Nautical Twilight
Astronomical Twilight
Moon
Length of Visible Light
Length of Day
Tomorrow will be .
, % of the Moon is Illuminated

Today's Extremes

State Highs State Lows

Community

WunderPhotos

Upload Photos

1,962,540 photos uploaded!

WunderBlog® & News

Nearby

Air Quality

  Air Quality AQ Index Pollutant
Not available.

Snow Depth

Station Depth Elevation

Earthquake Activity

City Distance Mag. Time & Date
Minimum magnitude displayed is 2.5.

Coastal Water Temperatures

Place Temperature

Stations

Nearby Weather Stations

Station Location Temp. Windchill Dew Point Humidity Wind Precip. Elev Updated Type
                   

Watches & Warnings

There are currently no watches in effect.